Time;durP1;ratioP1;P1;durP2;ratioP2;P2;SDS_P1;SDS_P2;PMS_P1;PMS_P2;Temp;Humidity;BMP_temperature;BMP_pressure;BME280_temperature;BME280_humidity;BME280_pressure;Samples;Min_cycle;Max_cycle;Signal;HPM_P1;HPM_P2
2022/03/26 00:00:06;;;;;;;53.40;25.13;;;5.80;54.20;;;;;;4975365;28;20049;-68
2022/03/26 00:02:32;;;;;;;60.92;27.50;;;5.70;54.20;;;;;;4956725;28;20450;-66
2022/03/26 00:04:58;;;;;;;52.85;26.77;;;5.70;54.20;;;;;;4974365;28;20038;-66
2022/03/26 00:07:23;;;;;;;55.03;27.60;;;5.70;54.30;;;;;;4974533;28;20073;-66
2022/03/26 00:09:49;;;;;;;58.45;29.05;;;5.70;54.40;;;;;;4970972;28;20054;-66
2022/03/26 00:12:14;;;;;;;58.00;29.02;;;5.60;54.50;;;;;;4972547;28;20038;-65
2022/03/26 00:14:40;;;;;;;54.70;28.38;;;5.60;54.60;;;;;;4950249;28;20125;-66
2022/03/26 00:17:06;;;;;;;55.63;26.95;;;5.60;54.70;;;;;;4956950;28;20065;-66
2022/03/26 00:19:32;;;;;;;47.88;24.67;;;5.60;54.80;;;;;;4972760;28;20035;-67
2022/03/26 00:21:58;;;;;;;51.03;25.55;;;5.50;54.90;;;;;;4975541;28;20675;-65
2022/03/26 00:24:23;;;;;;;46.05;24.23;;;5.50;55.00;;;;;;4971816;28;20150;-66
2022/03/26 00:26:49;;;;;;;48.42;25.02;;;5.50;55.00;;;;;;4972912;28;20027;-66
2022/03/26 00:29:15;;;;;;;45.88;24.33;;;5.40;55.00;;;;;;4971633;28;20034;-67
2022/03/26 00:31:40;;;;;;;46.60;23.80;;;5.40;55.10;;;;;;4973417;28;20039;-68
2022/03/26 00:34:07;;;;;;;47.65;24.00;;;5.40;55.30;;;;;;4973265;28;20092;-65
2022/03/26 00:36:33;;;;;;;48.38;24.08;;;5.30;55.30;;;;;;4973359;28;20670;-66
2022/03/26 00:38:58;;;;;;;44.72;22.90;;;5.30;55.40;;;;;;4958295;28;20044;-68
2022/03/26 00:41:24;;;;;;;45.95;23.73;;;5.30;55.50;;;;;;4963577;28;20043;-67
2022/03/26 00:43:50;;;;;;;47.15;23.73;;;5.20;55.50;;;;;;4950315;28;20035;-65
2022/03/26 00:46:16;;;;;;;43.10;22.92;;;5.20;55.50;;;;;;4969075;28;20489;-67
2022/03/26 00:48:42;;;;;;;43.38;23.73;;;5.20;56.20;;;;;;4987943;28;20513;-66
2022/03/26 00:51:08;;;;;;;44.58;23.70;;;5.20;55.60;;;;;;4964679;28;20093;-66
2022/03/26 00:53:33;;;;;;;49.25;23.95;;;5.10;55.60;;;;;;4966887;28;20045;-66
2022/03/26 00:55:59;;;;;;;42.20;23.27;;;5.10;55.70;;;;;;4954388;28;20038;-66
2022/03/26 00:58:25;;;;;;;48.00;23.35;;;5.10;55.70;;;;;;4971527;28;20261;-67
2022/03/26 01:00:50;;;;;;;44.55;23.48;;;5.10;55.80;;;;;;4975490;28;20038;-66
2022/03/26 01:03:18;;;;;;;47.15;24.85;;;5.10;55.80;;;;;;4966956;28;20041;-68
2022/03/26 01:05:44;;;;;;;47.08;24.40;;;5.10;55.90;;;;;;4967512;28;20061;-67
2022/03/26 01:08:10;;;;;;;48.15;24.92;;;5.00;56.00;;;;;;4975138;28;20115;-66
2022/03/26 01:10:36;;;;;;;45.60;24.30;;;5.00;56.00;;;;;;4956234;28;20142;-68
2022/03/26 01:13:02;;;;;;;47.65;24.58;;;5.00;56.00;;;;;;4975537;28;20070;-65
2022/03/26 01:15:28;;;;;;;49.90;23.95;;;5.00;56.20;;;;;;4973979;28;20383;-66
2022/03/26 01:17:55;;;;;;;49.72;24.85;;;4.90;56.30;;;;;;4975451;28;20041;-66
2022/03/26 01:20:21;;;;;;;48.33;24.10;;;4.90;56.30;;;;;;4975387;28;20038;-67
2022/03/26 01:22:46;;;;;;;48.75;24.63;;;4.90;56.40;;;;;;4955358;28;20035;-66
2022/03/26 01:25:12;;;;;;;48.55;23.02;;;4.80;56.40;;;;;;4964141;28;20026;-68
2022/03/26 01:27:38;;;;;;;48.50;24.52;;;4.90;56.50;;;;;;4973261;28;20047;-68
2022/03/26 01:30:04;;;;;;;45.75;24.35;;;4.90;56.50;;;;;;4960374;28;20027;-67
2022/03/26 01:32:31;;;;;;;51.47;24.15;;;4.90;56.60;;;;;;4955093;28;20446;-67
2022/03/26 01:34:57;;;;;;;49.88;24.33;;;4.80;56.50;;;;;;4974874;28;20031;-68
2022/03/26 01:37:24;;;;;;;52.92;26.00;;;4.90;56.60;;;;;;4969358;28;20039;-67
2022/03/26 01:39:52;;;;;;;50.00;25.67;;;4.80;56.50;;;;;;4955716;28;20150;-66
2022/03/26 01:42:18;;;;;;;49.78;25.08;;;4.80;56.50;;;;;;4969529;28;20043;-68
2022/03/26 01:44:44;;;;;;;50.17;25.58;;;4.80;56.60;;;;;;4971879;28;20042;-65
2022/03/26 01:47:10;;;;;;;46.58;23.77;;;4.80;56.60;;;;;;4975922;28;20038;-67
2022/03/26 01:49:36;;;;;;;50.05;24.90;;;4.70;56.60;;;;;;4965585;28;20046;-67
2022/03/26 01:52:03;;;;;;;46.70;24.30;;;4.70;56.80;;;;;;4954623;28;20489;-66
2022/03/26 01:54:29;;;;;;;48.00;25.17;;;4.70;56.80;;;;;;4971785;28;20050;-66
2022/03/26 01:56:56;;;;;;;52.13;25.27;;;4.60;56.80;;;;;;4971223;28;20035;-66
2022/03/26 01:59:27;;;;;;;54.72;25.25;;;4.60;57.10;;;;;;4959351;28;20090;-65
2022/03/26 02:01:52;;;;;;;47.15;24.58;;;4.60;57.30;;;;;;4977068;28;20565;-66
2022/03/26 02:04:18;;;;;;;45.95;23.88;;;4.60;57.00;;;;;;4974241;28;20046;-66
2022/03/26 02:06:45;;;;;;;51.03;23.90;;;4.50;57.00;;;;;;4958819;28;20380;-66
2022/03/26 02:09:13;;;;;;;51.38;25.20;;;4.50;57.10;;;;;;4969933;28;20122;-66
2022/03/26 02:11:40;;;;;;;48.42;24.65;;;4.50;57.40;;;;;;4953580;28;20553;-67
2022/03/26 02:14:08;;;;;;;45.47;23.90;;;4.50;57.30;;;;;;4954859;28;20418;-66
2022/03/26 02:16:36;;;;;;;56.20;25.45;;;4.50;57.20;;;;;;4969385;28;20117;-66
2022/03/26 02:19:03;;;;;;;52.17;23.90;;;4.50;57.30;;;;;;4977043;28;20039;-68
2022/03/26 02:21:28;;;;;;;49.63;24.08;;;4.50;57.30;;;;;;4976180;28;20038;-66
2022/03/26 02:23:54;;;;;;;49.88;24.05;;;4.50;57.40;;;;;;4961357;28;20036;-66
2022/03/26 02:26:25;;;;;;;47.80;24.02;;;4.50;57.30;;;;;;4954549;28;20450;-66
2022/03/26 02:28:52;;;;;;;49.53;25.20;;;4.50;57.40;;;;;;4972901;28;20433;-66
2022/03/26 02:31:18;;;;;;;48.85;24.95;;;4.50;58.10;;;;;;4974844;28;20750;-66
2022/03/26 02:33:44;;;;;;;49.38;25.15;;;4.40;57.50;;;;;;4973947;28;20048;-68
2022/03/26 02:36:10;;;;;;;46.90;24.48;;;4.40;57.60;;;;;;4973304;28;20038;-67
2022/03/26 02:38:37;;;;;;;48.00;24.55;;;4.40;57.50;;;;;;4974839;28;20049;-66
2022/03/26 02:41:04;;;;;;;48.60;24.48;;;4.40;57.50;;;;;;4974276;28;20080;-65
2022/03/26 02:43:30;;;;;;;45.08;23.70;;;4.40;57.60;;;;;;4964847;28;20035;-67
2022/03/26 02:45:56;;;;;;;45.30;23.63;;;4.30;57.50;;;;;;4952807;28;20042;-65
2022/03/26 02:48:22;;;;;;;49.03;23.75;;;4.30;57.60;;;;;;4971227;28;20066;-68
2022/03/26 02:50:48;;;;;;;46.67;24.05;;;4.30;57.50;;;;;;4969131;28;20032;-66
2022/03/26 02:53:13;;;;;;;47.80;23.80;;;4.30;57.60;;;;;;4959299;28;20046;-66
2022/03/26 02:55:39;;;;;;;45.30;22.95;;;4.20;57.60;;;;;;4963986;28;20034;-66
2022/03/26 02:58:07;;;;;;;46.85;23.98;;;4.20;57.70;;;;;;4974792;28;20374;-67
2022/03/26 03:00:34;;;;;;;48.65;22.92;;;4.20;57.90;;;;;;4970935;28;20494;-66
2022/03/26 03:03:00;;;;;;;44.28;23.25;;;4.20;57.90;;;;;;4956990;28;20509;-66
2022/03/26 03:05:26;;;;;;;46.15;23.58;;;4.20;57.90;;;;;;4971545;28;20226;-66
2022/03/26 03:07:53;;;;;;;46.55;23.95;;;4.20;58.00;;;;;;4975729;28;22283;-66
2022/03/26 03:10:19;;;;;;;46.38;23.45;;;4.20;58.00;;;;;;4974944;28;20093;-65
2022/03/26 03:12:46;;;;;;;42.97;23.17;;;4.20;58.00;;;;;;4971576;28;20541;-66
2022/03/26 03:15:12;;;;;;;45.60;23.48;;;4.20;58.00;;;;;;4974095;28;20046;-66
2022/03/26 03:17:39;;;;;;;46.97;23.42;;;4.20;57.90;;;;;;4972297;28;20045;-65
2022/03/26 03:20:06;;;;;;;47.72;24.40;;;4.20;57.90;;;;;;4970274;28;20709;-66
2022/03/26 03:22:32;;;;;;;48.13;24.85;;;4.20;58.00;;;;;;4972699;28;20035;-65
2022/03/26 03:24:58;;;;;;;46.38;23.60;;;4.20;57.90;;;;;;4952763;28;20034;-65
2022/03/26 03:27:24;;;;;;;45.42;22.83;;;4.20;57.90;;;;;;4952352;28;20047;-67
2022/03/26 03:29:50;;;;;;;46.67;23.33;;;4.20;57.80;;;;;;4965420;28;20081;-66
2022/03/26 03:32:16;;;;;;;44.22;23.33;;;4.20;57.80;;;;;;4956474;28;20147;-66
2022/03/26 03:34:42;;;;;;;49.13;24.65;;;4.10;57.80;;;;;;4970705;28;20097;-66
2022/03/26 03:37:08;;;;;;;52.60;24.15;;;4.10;57.90;;;;;;4957775;28;20505;-68
2022/03/26 03:39:33;;;;;;;48.25;24.75;;;4.10;58.00;;;;;;4962956;28;20077;-66
2022/03/26 03:41:59;;;;;;;43.88;23.35;;;4.00;58.00;;;;;;4950763;28;20039;-65
2022/03/26 03:44:25;;;;;;;46.80;23.83;;;4.00;58.10;;;;;;4969305;28;20037;-66
2022/03/26 03:46:51;;;;;;;51.53;25.10;;;4.00;58.20;;;;;;4973432;28;20063;-66
2022/03/26 03:49:17;;;;;;;46.72;23.20;;;3.90;58.20;;;;;;4971139;28;20026;-66
2022/03/26 03:51:43;;;;;;;46.67;24.02;;;3.90;58.30;;;;;;4963494;28;20118;-66
2022/03/26 03:54:09;;;;;;;48.45;23.33;;;3.90;58.30;;;;;;4969146;28;20039;-67
2022/03/26 03:56:34;;;;;;;45.83;22.50;;;3.90;58.40;;;;;;4970869;28;20619;-67
2022/03/26 03:59:00;;;;;;;47.33;22.75;;;3.90;58.50;;;;;;4970938;28;20039;-66
2022/03/26 04:01:26;;;;;;;42.08;21.40;;;3.90;58.50;;;;;;4952071;28;20410;-67
2022/03/26 04:03:52;;;;;;;44.30;21.75;;;3.90;58.60;;;;;;4964113;28;20529;-66
2022/03/26 04:06:17;;;;;;;47.95;22.38;;;3.90;58.60;;;;;;4970544;28;20031;-66
2022/03/26 04:08:43;;;;;;;47.15;22.98;;;3.90;58.70;;;;;;4968478;28;20030;-66
2022/03/26 04:11:09;;;;;;;43.60;22.70;;;3.90;58.90;;;;;;4970737;28;20506;-66
2022/03/26 04:13:35;;;;;;;46.55;22.05;;;3.80;58.90;;;;;;4972778;28;20589;-66
2022/03/26 04:16:01;;;;;;;45.75;22.63;;;3.80;59.00;;;;;;4960074;28;20130;-66
2022/03/26 04:18:26;;;;;;;42.60;21.85;;;3.80;59.10;;;;;;4967775;28;20046;-66
2022/03/26 04:20:53;;;;;;;44.38;21.42;;;3.80;59.20;;;;;;4975153;28;20441;-67
2022/03/26 04:23:19;;;;;;;41.25;21.05;;;3.80;59.30;;;;;;4968261;28;20047;-66
2022/03/26 04:25:46;;;;;;;44.42;21.33;;;3.80;59.40;;;;;;4953983;28;20139;-66
2022/03/26 04:28:12;;;;;;;44.50;21.23;;;3.80;59.50;;;;;;4971337;28;20031;-66
2022/03/26 04:30:38;;;;;;;42.92;20.55;;;3.80;59.50;;;;;;4976061;28;20022;-67
2022/03/26 04:33:04;;;;;;;41.03;20.17;;;3.80;59.50;;;;;;4961810;28;20108;-66
2022/03/26 04:35:29;;;;;;;40.92;20.55;;;3.80;59.40;;;;;;4967090;28;20062;-66
2022/03/26 04:37:56;;;;;;;39.70;19.70;;;3.90;59.60;;;;;;4954541;28;20039;-67
2022/03/26 04:40:26;;;;;;;41.45;21.20;;;3.90;59.50;;;;;;4972193;28;20493;-66
2022/03/26 04:42:51;;;;;;;42.08;20.00;;;3.90;59.50;;;;;;4959168;28;20049;-67
2022/03/26 04:45:17;;;;;;;44.40;21.15;;;3.90;59.50;;;;;;4977334;28;20038;-66
2022/03/26 04:47:43;;;;;;;47.58;21.88;;;3.90;59.40;;;;;;4964219;28;20035;-66
2022/03/26 04:50:10;;;;;;;43.20;21.50;;;3.90;59.40;;;;;;4953904;28;20027;-65
2022/03/26 04:52:36;;;;;;;46.50;21.45;;;3.90;59.50;;;;;;4972378;28;20035;-69
2022/03/26 04:55:02;;;;;;;48.05;21.27;;;3.90;59.50;;;;;;4960251;28;20057;-67
2022/03/26 04:57:28;;;;;;;43.55;19.90;;;3.90;59.50;;;;;;4977542;28;20069;-66
2022/03/26 04:59:53;;;;;;;42.25;21.65;;;3.90;59.50;;;;;;4964529;28;20562;-65
2022/03/26 05:02:19;;;;;;;45.97;20.83;;;3.90;59.50;;;;;;4959138;28;20242;-66
2022/03/26 05:04:44;;;;;;;41.88;20.00;;;3.90;59.50;;;;;;4973065;28;20046;-66
2022/03/26 05:09:55;;;;;;;43.05;20.42;;;3.90;59.50;;;;;;4954874;28;20513;-67
2022/03/26 05:12:21;;;;;;;45.20;20.85;;;3.90;59.50;;;;;;4947752;28;20038;-66
2022/03/26 05:14:46;;;;;;;45.03;20.00;;;3.90;59.50;;;;;;4970972;28;20032;-66
2022/03/26 05:17:13;;;;;;;45.72;20.83;;;3.90;59.40;;;;;;4956270;28;20050;-65
2022/03/26 05:19:39;;;;;;;41.78;19.88;;;4.00;59.50;;;;;;4964327;28;20064;-67
2022/03/26 05:22:04;;;;;;;44.47;20.30;;;4.00;59.50;;;;;;4959510;28;20463;-66
2022/03/26 05:24:30;;;;;;;40.95;18.60;;;4.10;59.50;;;;;;4972541;28;20138;-68
2022/03/26 05:26:56;;;;;;;44.65;20.60;;;4.20;59.50;;;;;;4958611;28;20137;-65
2022/03/26 05:29:22;;;;;;;40.38;19.73;;;4.20;59.40;;;;;;4966902;28;20035;-66
2022/03/26 05:31:47;;;;;;;41.75;20.45;;;4.30;59.50;;;;;;4966869;28;20441;-65
2022/03/26 05:34:13;;;;;;;38.35;19.48;;;4.30;59.30;;;;;;4976180;28;20164;-66
2022/03/26 05:36:39;;;;;;;39.13;19.48;;;4.40;59.40;;;;;;4954779;28;20050;-66
2022/03/26 05:39:05;;;;;;;42.92;19.00;;;4.40;59.20;;;;;;4959126;28;20457;-66
2022/03/26 05:41:32;;;;;;;40.45;20.42;;;4.50;59.10;;;;;;4973607;28;20045;-65
2022/03/26 05:43:59;;;;;;;39.42;19.55;;;4.50;59.10;;;;;;4960764;28;20128;-67
2022/03/26 05:46:25;;;;;;;43.83;19.88;;;4.50;59.00;;;;;;4971954;28;20117;-66
2022/03/26 05:48:50;;;;;;;39.08;19.60;;;4.50;59.10;;;;;;4959535;28;20053;-65
2022/03/26 05:51:16;;;;;;;39.05;19.88;;;4.60;59.10;;;;;;4966087;28;21039;-65
2022/03/26 05:53:42;;;;;;;37.95;20.27;;;4.60;59.00;;;;;;4951752;28;20041;-65
2022/03/26 05:56:07;;;;;;;39.13;19.65;;;4.60;59.00;;;;;;4968559;28;20037;-67
2022/03/26 05:58:34;;;;;;;43.28;19.95;;;4.70;59.00;;;;;;4973907;28;20466;-67
2022/03/26 06:01:00;;;;;;;50.92;21.15;;;4.70;59.00;;;;;;4975432;28;20041;-65
2022/03/26 06:03:26;;;;;;;41.53;20.50;;;4.80;59.00;;;;;;4967452;28;20031;-66
2022/03/26 06:05:51;;;;;;;41.58;19.85;;;4.80;59.00;;;;;;4966176;28;20077;-67
2022/03/26 06:08:17;;;;;;;45.80;20.92;;;4.90;59.00;;;;;;4960360;28;20039;-66
2022/03/26 06:10:43;;;;;;;41.47;21.08;;;5.00;58.90;;;;;;4971961;28;20061;-65
2022/03/26 06:13:09;;;;;;;45.70;20.75;;;5.00;58.90;;;;;;4973667;28;20142;-65
2022/03/26 06:15:35;;;;;;;49.22;22.33;;;5.10;58.90;;;;;;4963882;28;20049;-64
2022/03/26 06:18:04;;;;;;;37.75;20.30;;;5.10;58.80;;;;;;4968167;28;20035;-66
2022/03/26 06:20:30;;;;;;;43.47;19.83;;;5.20;58.90;;;;;;4956397;28;20417;-66
2022/03/26 06:22:55;;;;;;;40.60;20.05;;;5.30;58.70;;;;;;4962656;28;20432;-65
2022/03/26 06:25:21;;;;;;;42.08;19.75;;;5.30;58.70;;;;;;4975402;28;20031;-65
2022/03/26 06:27:48;;;;;;;40.40;19.42;;;5.40;58.60;;;;;;4960974;28;20513;-65
2022/03/26 06:30:14;;;;;;;45.53;20.23;;;5.50;58.50;;;;;;4966618;28;20070;-65
2022/03/26 06:32:39;;;;;;;40.38;20.35;;;5.60;58.60;;;;;;4974068;28;20031;-66
2022/03/26 06:35:05;;;;;;;39.92;19.10;;;5.70;58.60;;;;;;4969136;28;20100;-66
2022/03/26 06:37:31;;;;;;;40.85;20.20;;;5.70;58.50;;;;;;4951798;28;20501;-66
2022/03/26 06:39:57;;;;;;;41.83;19.08;;;5.80;58.50;;;;;;4964324;28;20031;-68
2022/03/26 06:42:23;;;;;;;49.08;21.33;;;5.80;58.20;;;;;;4973295;28;20481;-68
2022/03/26 06:44:48;;;;;;;40.53;21.13;;;5.90;58.40;;;;;;4952218;28;20120;-67
2022/03/26 06:47:14;;;;;;;42.92;20.95;;;6.00;58.20;;;;;;4954711;28;21896;-65
2022/03/26 06:49:41;;;;;;;40.28;20.38;;;6.00;58.10;;;;;;4979467;28;20031;-65
2022/03/26 06:52:08;;;;;;;40.10;19.95;;;6.10;58.00;;;;;;4961757;28;20098;-66
2022/03/26 06:54:33;;;;;;;40.97;19.55;;;6.20;57.90;;;;;;4953697;28;20035;-66
2022/03/26 06:56:59;;;;;;;41.30;19.90;;;6.30;58.00;;;;;;4950842;28;20042;-65
2022/03/26 06:59:25;;;;;;;41.67;20.02;;;6.40;58.00;;;;;;4962561;28;20038;-66
2022/03/26 07:01:51;;;;;;;42.08;19.75;;;6.50;57.90;;;;;;4960520;28;20054;-66
2022/03/26 07:04:17;;;;;;;42.03;20.73;;;6.50;57.70;;;;;;4969216;28;20572;-64
2022/03/26 07:06:43;;;;;;;40.90;19.48;;;6.60;57.60;;;;;;4973425;28;20113;-65
2022/03/26 07:09:09;;;;;;;49.17;22.50;;;6.70;58.20;;;;;;4953547;28;20314;-64
2022/03/26 07:11:34;;;;;;;40.58;20.92;;;6.80;57.80;;;;;;4944480;28;20031;-67
2022/03/26 07:14:00;;;;;;;41.78;20.48;;;6.80;57.60;;;;;;4956489;28;20045;-65
2022/03/26 07:16:26;;;;;;;39.75;20.70;;;6.90;57.50;;;;;;4950832;28;20121;-65
2022/03/26 07:18:51;;;;;;;42.75;20.83;;;7.00;58.10;;;;;;4953427;28;20039;-65
2022/03/26 07:21:17;;;;;;;39.00;19.92;;;7.10;57.30;;;;;;4967233;28;20047;-65
2022/03/26 07:23:42;;;;;;;39.10;20.30;;;7.20;57.30;;;;;;4961795;28;20094;-65
2022/03/26 07:26:08;;;;;;;40.67;20.02;;;7.20;57.80;;;;;;4954144;28;20035;-66
2022/03/26 07:28:34;;;;;;;42.75;20.63;;;7.30;57.10;;;;;;4971260;28;20030;-66
2022/03/26 07:30:59;;;;;;;42.03;20.48;;;7.40;57.10;;;;;;4968944;28;20414;-66
2022/03/26 07:33:25;;;;;;;41.85;20.45;;;7.50;57.00;;;;;;4955337;28;20049;-65
2022/03/26 07:35:51;;;;;;;40.17;20.00;;;7.60;56.70;;;;;;4964552;28;20050;-66
2022/03/26 07:38:16;;;;;;;38.42;20.30;;;7.70;56.70;;;;;;4975418;28;20042;-66
2022/03/26 07:40:42;;;;;;;46.33;20.92;;;7.80;56.50;;;;;;4957620;28;20027;-66
2022/03/26 07:43:08;;;;;;;42.05;21.27;;;7.90;56.40;;;;;;4972820;28;20125;-67
2022/03/26 07:45:34;;;;;;;43.65;21.60;;;7.90;56.20;;;;;;4965654;28;20126;-66
2022/03/26 07:48:01;;;;;;;42.97;20.55;;;8.10;56.10;;;;;;4959052;28;20437;-66
2022/03/26 07:50:26;;;;;;;43.05;20.85;;;8.20;56.10;;;;;;4954326;28;20039;-67
2022/03/26 07:52:53;;;;;;;48.42;21.98;;;8.20;56.00;;;;;;4971123;28;20622;-65
2022/03/26 07:55:19;;;;;;;45.70;21.30;;;8.30;56.00;;;;;;4967408;28;20131;-67
2022/03/26 07:57:45;;;;;;;37.95;18.75;;;8.50;55.80;;;;;;4949138;28;20027;-66
2022/03/26 08:00:11;;;;;;;40.40;20.52;;;8.50;55.60;;;;;;4967393;28;20568;-65
2022/03/26 08:02:37;;;;;;;40.30;21.15;;;8.60;55.40;;;;;;4974219;28;20086;-67
2022/03/26 08:05:03;;;;;;;41.20;20.92;;;8.70;55.30;;;;;;4979630;28;20038;-65
2022/03/26 08:07:29;;;;;;;42.03;21.75;;;8.80;55.20;;;;;;4969714;28;20054;-66
2022/03/26 08:09:54;;;;;;;42.22;21.85;;;8.90;55.10;;;;;;4952494;28;20050;-68
2022/03/26 08:12:20;;;;;;;42.03;22.40;;;9.00;55.10;;;;;;4953013;28;20036;-65
2022/03/26 08:14:46;;;;;;;39.47;20.80;;;9.10;55.00;;;;;;4963382;28;20101;-65
2022/03/26 08:17:12;;;;;;;44.05;22.65;;;9.20;55.00;;;;;;4977215;28;20094;-66
2022/03/26 08:19:37;;;;;;;38.42;21.27;;;9.30;54.80;;;;;;4970090;28;20082;-66
2022/03/26 08:22:04;;;;;;;44.60;22.77;;;9.40;54.70;;;;;;4970684;28;20397;-66
2022/03/26 08:24:29;;;;;;;42.30;22.05;;;9.50;54.50;;;;;;4964365;28;20038;-66
2022/03/26 08:26:55;;;;;;;44.15;22.27;;;9.60;54.40;;;;;;4962884;28;20442;-68
2022/03/26 08:29:21;;;;;;;44.95;22.13;;;9.70;54.30;;;;;;4982006;28;20046;-65
2022/03/26 08:31:47;;;;;;;40.88;22.02;;;9.80;54.10;;;;;;4970308;28;20035;-65
2022/03/26 08:34:12;;;;;;;39.08;20.90;;;9.90;54.60;;;;;;4969685;28;20165;-66
2022/03/26 08:36:38;;;;;;;39.30;21.85;;;10.00;53.70;;;;;;4968736;28;20524;-65
2022/03/26 08:39:04;;;;;;;44.08;22.55;;;10.10;53.60;;;;;;4966457;28;20045;-66
2022/03/26 08:41:30;;;;;;;43.05;23.55;;;10.20;53.50;;;;;;4982857;28;20046;-65
2022/03/26 08:43:56;;;;;;;44.75;22.65;;;10.30;53.30;;;;;;4977106;28;20082;-65
2022/03/26 08:46:22;;;;;;;41.05;22.33;;;10.40;53.20;;;;;;4976350;28;20045;-67
2022/03/26 08:48:49;;;;;;;41.33;22.73;;;10.50;53.20;;;;;;4970268;28;20035;-67
2022/03/26 08:51:15;;;;;;;43.00;22.08;;;10.60;53.00;;;;;;4979115;28;20548;-65
2022/03/26 08:53:41;;;;;;;39.35;21.30;;;10.70;52.90;;;;;;4979317;28;20061;-64
2022/03/26 08:56:07;;;;;;;42.45;23.02;;;10.80;52.80;;;;;;4976736;28;20509;-66
2022/03/26 08:58:38;;;;;;;41.45;21.45;;;10.90;52.50;;;;;;4978720;28;20047;-67
2022/03/26 09:01:07;;;;;;;46.20;23.02;;;11.00;52.40;;;;;;4980681;28;20042;-70
2022/03/26 09:03:37;;;;;;;40.47;21.88;;;11.10;52.00;;;;;;4972050;28;20043;-66
2022/03/26 09:06:06;;;;;;;44.72;23.27;;;11.20;52.10;;;;;;4981336;28;20030;-66
2022/03/26 09:08:32;;;;;;;40.75;22.73;;;11.30;51.70;;;;;;4973001;28;20034;-67
2022/03/26 09:10:58;;;;;;;42.65;22.80;;;11.40;51.80;;;;;;4971327;28;20040;-66
2022/03/26 09:13:24;;;;;;;39.67;21.20;;;11.40;51.40;;;;;;4980442;28;20034;-65
2022/03/26 09:15:50;;;;;;;40.63;22.35;;;11.50;51.50;;;;;;4978820;28;20058;-66
2022/03/26 09:18:15;;;;;;;40.92;22.05;;;11.60;51.30;;;;;;4979771;28;20112;-66
2022/03/26 09:20:41;;;;;;;37.90;21.65;;;11.70;51.40;;;;;;4975216;28;20063;-67
2022/03/26 09:23:07;;;;;;;44.53;23.25;;;11.80;51.30;;;;;;4982798;28;20057;-66
2022/03/26 09:25:34;;;;;;;45.05;24.05;;;11.90;50.80;;;;;;4983246;28;20109;-68
2022/03/26 09:28:00;;;;;;;43.03;23.65;;;12.00;50.60;;;;;;4982529;28;20053;-65
2022/03/26 09:30:26;;;;;;;39.13;22.33;;;12.10;50.70;;;;;;4984131;28;20487;-66
2022/03/26 09:32:51;;;;;;;41.95;23.27;;;12.10;50.70;;;;;;4986344;28;20444;-67
2022/03/26 09:35:17;;;;;;;41.15;21.27;;;12.20;50.50;;;;;;4982463;28;20027;-65
2022/03/26 09:37:44;;;;;;;38.10;22.95;;;12.30;50.60;;;;;;4981587;28;20158;-66
2022/03/26 09:40:12;;;;;;;37.25;22.02;;;12.40;50.40;;;;;;4980953;28;20038;-66
2022/03/26 09:42:39;;;;;;;37.08;22.15;;;12.60;50.30;;;;;;4980183;28;20037;-65
2022/03/26 09:45:06;;;;;;;39.75;23.20;;;12.60;50.10;;;;;;4980888;28;20034;-66
2022/03/26 09:47:33;;;;;;;42.42;22.13;;;12.70;49.70;;;;;;4997948;28;20055;-67
2022/03/26 09:49:59;;;;;;;39.50;22.88;;;12.80;49.50;;;;;;4986545;28;20039;-68
2022/03/26 09:52:25;;;;;;;46.70;22.70;;;12.90;49.40;;;;;;4986261;28;20066;-66
2022/03/26 09:54:51;;;;;;;37.33;21.73;;;12.90;49.30;;;;;;4980292;28;20035;-66
2022/03/26 09:57:17;;;;;;;41.17;22.73;;;13.10;49.40;;;;;;4981248;28;20037;-66
2022/03/26 09:59:43;;;;;;;41.10;22.65;;;13.10;49.00;;;;;;4981025;28;20082;-67
2022/03/26 10:02:08;;;;;;;42.40;23.42;;;13.20;49.00;;;;;;4981269;28;20138;-68
2022/03/26 10:04:41;;;;;;;42.45;23.02;;;13.30;48.90;;;;;;4980767;28;20118;-66
2022/03/26 10:07:07;;;;;;;35.97;21.42;;;13.40;48.30;;;;;;4981853;28;20030;-67
2022/03/26 10:09:36;;;;;;;41.97;23.17;;;13.60;48.70;;;;;;4981030;28;20370;-66
2022/03/26 10:12:03;;;;;;;43.15;23.30;;;13.70;48.40;;;;;;4976422;28;20085;-66
2022/03/26 10:14:39;;;;;;;42.95;22.95;;;13.70;48.10;;;;;;4982088;28;20502;-65
2022/03/26 10:17:24;;;;;;;36.55;21.85;;;13.80;47.20;;;;;;4979717;28;20042;-67
2022/03/26 10:19:54;;;;;;;41.90;21.77;;;13.90;47.40;;;;;;4981684;28;20121;-69
2022/03/26 10:22:39;;;;;;;37.28;22.20;;;14.00;47.70;;;;;;4981291;28;20042;-67
2022/03/26 10:25:14;;;;;;;39.85;21.58;;;14.00;47.00;;;;;;4981096;28;20184;-67
2022/03/26 10:27:50;;;;;;;46.05;22.30;;;14.10;47.00;;;;;;4979712;28;20053;-66
2022/03/26 10:32:38;;;;;;;41.75;21.92;;;14.20;47.30;;;;;;4979796;28;20045;-66
2022/03/26 10:33:22;;;;;;;41.60;22.80;;;14.30;47.00;;;;;;4979092;28;20042;-66
2022/03/26 10:35:58;;;;;;;37.05;21.63;;;14.40;46.30;;;;;;4978976;28;20037;-67
2022/03/26 10:38:32;;;;;;;34.08;20.65;;;14.50;46.60;;;;;;4979409;28;20565;-66
2022/03/26 10:40:59;;;;;;;42.13;21.83;;;14.60;46.70;;;;;;4979743;28;20064;-66
2022/03/26 10:43:27;;;;;;;41.47;22.30;;;14.60;46.70;;;;;;4981779;28;20038;-66
2022/03/26 10:45:55;;;;;;;37.88;21.48;;;14.70;46.50;;;;;;4979440;28;20065;-69
2022/03/26 10:48:26;;;;;;;37.95;22.17;;;14.80;46.30;;;;;;4979498;28;20514;-66
2022/03/26 10:51:00;;;;;;;40.63;22.50;;;14.90;45.90;;;;;;4975881;28;20027;-66
2022/03/26 10:53:40;;;;;;;42.60;22.05;;;15.00;45.70;;;;;;4978737;28;20437;-66
2022/03/26 10:56:07;;;;;;;36.70;21.35;;;15.10;45.50;;;;;;4979219;28;20034;-67
2022/03/26 10:58:34;;;;;;;39.75;21.73;;;15.20;45.60;;;;;;4977473;28;20262;-66
2022/03/26 11:01:00;;;;;;;35.00;20.42;;;15.30;45.10;;;;;;4978722;28;20034;-66
2022/03/26 11:03:26;;;;;;;40.63;22.17;;;15.30;45.40;;;;;;4979608;28;20134;-66
2022/03/26 11:05:54;;;;;;;41.85;22.95;;;15.40;44.80;;;;;;4982674;28;20027;-66
2022/03/26 11:08:20;;;;;;;38.53;23.13;;;15.50;44.80;;;;;;4980149;28;20035;-66
2022/03/26 11:10:46;;;;;;;34.97;21.65;;;15.60;44.70;;;;;;4975960;28;20033;-66
2022/03/26 11:13:15;;;;;;;36.90;21.55;;;15.70;44.70;;;;;;4981191;28;20035;-66
2022/03/26 11:15:46;;;;;;;35.67;21.23;;;15.80;44.80;;;;;;4979511;28;20520;-66
2022/03/26 11:18:20;;;;;;;37.15;22.08;;;15.80;44.70;;;;;;4978890;28;20073;-66
2022/03/26 11:21:00;;;;;;;36.83;21.48;;;15.90;44.20;;;;;;4977884;28;20038;-66
2022/03/26 11:23:43;;;;;;;36.72;20.92;;;16.10;44.30;;;;;;4979425;28;20134;-66
2022/03/26 11:26:27;;;;;;;34.10;20.38;;;16.20;43.70;;;;;;4984948;28;20041;-66
2022/03/26 11:29:09;;;;;;;39.65;21.35;;;16.30;44.00;;;;;;4976919;28;20045;-66
2022/03/26 11:31:50;;;;;;;38.05;22.67;;;16.40;43.10;;;;;;4979397;28;20046;-67
2022/03/26 11:34:18;;;;;;;39.08;22.27;;;16.60;42.60;;;;;;4977477;28;20391;-67
2022/03/26 11:36:44;;;;;;;38.63;21.75;;;16.70;43.50;;;;;;4978452;28;20034;-66
2022/03/26 11:39:12;;;;;;;37.60;22.00;;;16.70;42.70;;;;;;4974532;28;20050;-66
2022/03/26 11:41:39;;;;;;;34.55;21.52;;;16.80;42.30;;;;;;4993482;28;20538;-66
2022/03/26 11:44:07;;;;;;;34.00;20.58;;;16.90;42.10;;;;;;4975998;28;20465;-67
2022/03/26 11:52:29;;;;;;;;;;;17.20;42.10;;;;;;4979548;28;20405;-64
2022/03/26 11:55:15;;;;;;;34.88;19.38;;;17.30;42.60;;;;;;4975722;28;19997;-67
2022/03/26 11:57:41;;;;;;;35.55;19.38;;;17.40;41.50;;;;;;4962919;28;20034;-66
2022/03/26 12:00:21;;;;;;;30.63;19.75;;;17.50;41.50;;;;;;4976693;28;20046;-66
2022/03/26 12:02:51;;;;;;;31.80;19.35;;;17.60;40.10;;;;;;4975141;28;20054;-66
2022/03/26 12:08:19;;;;;;;30.40;19.58;;;17.70;40.40;;;;;;4974100;28;20509;-67
2022/03/26 12:10:47;;;;;;;32.85;20.40;;;17.80;39.80;;;;;;4972581;28;20056;-69
2022/03/26 12:13:22;;;;;;;33.60;20.40;;;17.90;40.30;;;;;;4973789;28;20048;-68
2022/03/26 12:15:59;;;;;;;36.35;20.30;;;17.90;39.40;;;;;;4973634;28;20034;-68
2022/03/26 12:18:38;;;;;;;29.98;18.58;;;18.00;39.30;;;;;;4971735;28;20038;-67
2022/03/26 12:21:08;;;;;;;31.52;20.23;;;18.10;39.10;;;;;;4958046;28;20181;-66
2022/03/26 12:23:34;;;;;;;36.15;20.30;;;18.10;38.80;;;;;;4963735;28;20034;-68
2022/03/26 12:26:07;;;;;;;31.85;20.42;;;18.10;39.10;;;;;;4956832;28;20616;-68
2022/03/26 12:28:43;;;;;;;30.88;19.63;;;18.20;38.20;;;;;;4975132;28;20031;-68
2022/03/26 12:31:13;;;;;;;30.67;19.00;;;18.20;38.10;;;;;;4973898;28;20034;-68
2022/03/26 12:33:52;;;;;;;30.40;19.65;;;18.20;38.10;;;;;;4978893;28;20399;-66
2022/03/26 12:36:20;;;;;;;33.00;19.15;;;18.30;38.00;;;;;;4958773;28;20121;-67
2022/03/26 12:38:49;;;;;;;31.50;19.75;;;18.30;38.20;;;;;;4957545;28;20043;-66
2022/03/26 12:41:15;;;;;;;29.45;19.00;;;18.30;38.00;;;;;;4978548;28;20040;-67
2022/03/26 12:43:41;;;;;;;32.70;19.13;;;18.40;38.20;;;;;;4971678;28;20122;-66